createdAt,value
2023-04-15T00:00:10.197Z,15.27
2023-04-15T00:02:16.323Z,19.70
2023-04-15T00:04:18.448Z,11.85
2023-04-15T00:06:21.500Z,10.75
2023-04-15T00:08:23.810Z,13.02
2023-04-15T00:10:26.267Z,13.18
2023-04-15T00:12:28.192Z,12.70
2023-04-15T00:14:30.700Z,12.80
2023-04-15T00:16:32.605Z,12.73
2023-04-15T00:18:34.928Z,13.32
2023-04-15T00:20:37.286Z,14.80
2023-04-15T00:22:39.290Z,13.73
2023-04-15T00:24:41.364Z,12.90
2023-04-15T00:26:43.166Z,15.75
2023-04-15T00:28:45.423Z,11.30
2023-04-15T00:30:47.504Z,15.32
2023-04-15T00:32:49.660Z,15.13
2023-04-15T00:34:51.788Z,14.93
2023-04-15T00:36:53.793Z,14.07
2023-04-15T00:38:55.769Z,14.50
2023-04-15T00:40:57.617Z,17.10
2023-04-15T00:42:59.529Z,15.13
2023-04-15T00:45:01.746Z,14.27
2023-04-15T00:47:03.995Z,14.40
2023-04-15T00:49:06.501Z,14.95
2023-04-15T00:51:09.723Z,14.07
2023-04-15T00:53:12.407Z,14.02
2023-04-15T00:55:14.267Z,13.00
2023-04-15T00:57:16.101Z,15.53
2023-04-15T00:59:18.018Z,13.60
2023-04-15T01:01:23.038Z,15.63
2023-04-15T01:03:25.564Z,17.40
2023-04-15T01:07:29.436Z,13.07
2023-04-15T01:09:31.243Z,17.02
2023-04-15T01:11:35.729Z,15.70
2023-04-15T01:13:37.612Z,11.45
2023-04-15T01:15:39.519Z,15.63
2023-04-15T01:17:42.064Z,15.32
2023-04-15T01:19:44.004Z,13.95
2023-04-15T01:21:46.094Z,12.38
2023-04-15T01:23:48.590Z,18.73
2023-04-15T01:25:50.674Z,16.70
2023-04-15T01:27:52.985Z,15.75
2023-04-15T01:29:54.850Z,14.68
2023-04-15T01:31:56.968Z,19.33
2023-04-15T01:33:59.215Z,16.10
2023-04-15T01:36:01.642Z,18.77
2023-04-15T01:38:07.710Z,13.38
2023-04-15T01:40:09.943Z,16.77
2023-04-15T01:42:11.843Z,17.05
2023-04-15T01:44:13.637Z,15.38
2023-04-15T01:46:15.493Z,13.93
2023-04-15T01:48:17.978Z,14.07
2023-04-15T01:50:20.613Z,14.48
2023-04-15T01:52:22.448Z,15.25
2023-04-15T01:54:24.242Z,20.13
2023-04-15T01:56:26.776Z,15.83
2023-04-15T02:00:30.805Z,15.60
2023-04-15T02:02:32.994Z,13.43
2023-04-15T02:04:34.928Z,14.60
2023-04-15T02:06:36.776Z,15.68
2023-04-15T02:08:38.746Z,13.38
2023-04-15T02:10:40.604Z,21.92
2023-04-15T02:12:42.504Z,15.03
2023-04-15T02:14:44.297Z,13.30
2023-04-15T02:16:46.582Z,13.03
2023-04-15T02:18:48.473Z,13.63
2023-04-15T02:20:52.341Z,12.80
2023-04-15T02:22:54.130Z,11.98
2023-04-15T02:24:55.987Z,15.63
2023-04-15T02:26:57.860Z,13.68
2023-04-15T02:29:00.313Z,13.45
2023-04-15T02:31:06.656Z,10.50
2023-04-15T02:33:08.606Z,13.05
2023-04-15T02:35:10.558Z,10.77
2023-04-15T02:37:13.167Z,12.05
2023-04-15T02:39:16.952Z,13.38
2023-04-15T02:41:18.833Z,13.25
2023-04-15T02:43:20.712Z,16.17
2023-04-15T02:45:24.266Z,11.38
2023-04-15T02:47:26.134Z,14.95
2023-04-15T02:49:29.954Z,15.88
2023-04-15T02:51:32.452Z,16.52
2023-04-15T02:53:34.271Z,13.90
2023-04-15T02:55:36.494Z,12.50
2023-04-15T02:57:40.745Z,13.00
2023-04-15T02:59:42.598Z,13.90
2023-04-15T03:02:40.262Z,13.55
2023-04-15T03:04:42.244Z,13.98
2023-04-15T03:06:44.105Z,11.95
2023-04-15T03:08:45.934Z,14.85
2023-04-15T03:10:48.321Z,12.77
2023-04-15T03:12:50.181Z,12.75
2023-04-15T03:14:52.035Z,15.03
2023-04-15T03:16:53.990Z,11.63
2023-04-15T03:18:55.871Z,16.55
2023-04-15T03:20:57.788Z,11.23
2023-04-15T03:22:59.660Z,11.80
2023-04-15T03:25:01.896Z,12.60
2023-04-15T03:27:03.798Z,12.10
2023-04-15T03:29:05.844Z,13.70
2023-04-15T03:31:08.221Z,11.50
2023-04-15T03:33:10.190Z,11.38
2023-04-15T03:35:12.096Z,11.68
2023-04-15T03:37:13.984Z,12.70
2023-04-15T03:39:16.058Z,12.87
2023-04-15T03:41:18.058Z,13.45
2023-04-15T03:43:19.915Z,16.52
2023-04-15T03:45:21.712Z,13.13
2023-04-15T03:47:23.695Z,14.70
2023-04-15T03:49:25.732Z,14.60
2023-04-15T03:51:27.588Z,13.25
2023-04-15T03:53:29.461Z,13.17
2023-04-15T03:55:31.741Z,11.25
2023-04-15T03:57:38.064Z,12.10
2023-04-15T03:59:39.940Z,12.35
2023-04-15T04:01:41.796Z,12.45
2023-04-15T04:03:43.756Z,12.43
2023-04-15T04:05:45.681Z,11.38
2023-04-15T04:07:47.547Z,13.70
2023-04-15T04:09:49.369Z,12.33
2023-04-15T04:11:51.322Z,12.47
2023-04-15T04:13:53.166Z,12.57
2023-04-15T04:15:55.006Z,17.07
2023-04-15T04:17:57.169Z,12.13
2023-04-15T04:19:59.046Z,14.48
2023-04-15T04:22:01.025Z,12.83
2023-04-15T04:24:02.927Z,12.60
2023-04-15T04:26:04.788Z,11.35
2023-04-15T04:28:06.570Z,10.90
2023-04-15T04:30:08.872Z,13.23
2023-04-15T04:32:11.324Z,14.07
2023-04-15T04:34:13.125Z,13.50
2023-04-15T04:36:15.010Z,15.13
2023-04-15T04:38:16.827Z,13.32
2023-04-15T04:40:18.770Z,15.67
2023-04-15T04:42:20.585Z,13.77
2023-04-15T04:44:22.421Z,14.53
2023-04-15T04:46:24.391Z,14.03
2023-04-15T04:48:27.170Z,16.35
2023-04-15T04:50:29.014Z,16.58
2023-04-15T04:52:31.199Z,17.97
2023-04-15T04:54:33.315Z,12.65
2023-04-15T04:56:35.148Z,13.27
2023-04-15T04:58:37.005Z,12.93
2023-04-15T05:00:39.063Z,16.17
2023-04-15T05:02:42.573Z,24.48
2023-04-15T05:04:44.490Z,17.77
2023-04-15T05:06:46.597Z,19.27
2023-04-15T05:08:48.807Z,20.27
2023-04-15T05:10:50.641Z,21.25
2023-04-15T05:12:52.732Z,22.63
2023-04-15T05:14:54.555Z,22.15
2023-04-15T05:16:56.861Z,16.67
2023-04-15T05:18:58.722Z,19.27
2023-04-15T05:21:01.213Z,14.93
2023-04-15T05:23:03.038Z,14.23
2023-04-15T05:25:05.315Z,13.02
2023-04-15T05:27:08.621Z,12.02
2023-04-15T05:29:10.665Z,12.60
2023-04-15T05:31:12.502Z,14.50
2023-04-15T05:33:14.362Z,16.27
2023-04-15T05:35:16.371Z,12.57
2023-04-15T05:37:20.890Z,14.55
2023-04-15T05:39:22.713Z,17.58
2023-04-15T05:41:24.658Z,13.37
2023-04-15T05:43:26.535Z,15.40
2023-04-15T05:45:28.397Z,17.02
2023-04-15T05:47:30.241Z,13.77
2023-04-15T05:49:32.106Z,14.05
2023-04-15T05:51:33.992Z,15.37
2023-04-15T05:53:36.025Z,15.43
2023-04-15T05:55:37.857Z,13.77
2023-04-15T05:57:39.751Z,14.63
2023-04-15T05:59:42.275Z,15.80
2023-04-15T06:01:45.248Z,16.73
2023-04-15T06:03:47.355Z,14.57
2023-04-15T06:05:49.364Z,9.98
2023-04-15T06:07:51.409Z,13.13
2023-04-15T06:09:53.416Z,13.30
2023-04-15T06:11:56.391Z,15.07
2023-04-15T06:13:58.264Z,15.88
2023-04-15T06:16:00.257Z,13.20
2023-04-15T06:18:02.396Z,17.30
2023-04-15T06:20:04.924Z,15.43
2023-04-15T06:22:07.364Z,14.02
2023-04-15T06:24:09.207Z,12.95
2023-04-15T06:26:11.052Z,12.33
2023-04-15T06:28:13.066Z,17.67
2023-04-15T06:30:14.930Z,15.23
2023-04-15T06:32:16.827Z,15.48
2023-04-15T06:34:18.727Z,14.38
2023-04-15T06:36:20.714Z,15.75
2023-04-15T06:38:22.501Z,15.02
2023-04-15T06:40:24.545Z,17.57
2023-04-15T06:42:26.516Z,18.20
2023-04-15T06:44:28.396Z,15.13
2023-04-15T06:46:30.197Z,16.07
2023-04-15T06:48:32.293Z,16.83
2023-04-15T06:50:35.758Z,15.07
2023-04-15T06:52:37.672Z,16.02
2023-04-15T06:54:39.572Z,19.63
2023-04-15T06:56:42.104Z,16.05
2023-04-15T06:58:43.964Z,17.70
2023-04-15T07:00:46.229Z,17.48
2023-04-15T07:02:48.216Z,17.98
2023-04-15T07:04:50.052Z,19.73
2023-04-15T07:06:51.946Z,18.17
2023-04-15T07:08:54.378Z,17.85
2023-04-15T07:10:56.267Z,19.92
2023-04-15T07:12:58.573Z,16.25
2023-04-15T07:15:00.399Z,19.15
2023-04-15T07:17:02.796Z,21.20
2023-04-15T07:19:04.813Z,16.60
2023-04-15T07:21:06.682Z,17.52
2023-04-15T07:23:08.542Z,17.20
2023-04-15T07:25:10.382Z,18.87
2023-04-15T07:27:12.273Z,18.38
2023-04-15T07:29:14.116Z,17.00
2023-04-15T07:31:16.997Z,19.13
2023-04-15T07:33:18.945Z,19.67
2023-04-15T07:35:21.640Z,22.63
2023-04-15T07:37:23.476Z,23.40
2023-04-15T07:39:25.948Z,24.27
2023-04-15T07:41:27.776Z,30.17
2023-04-15T07:43:29.770Z,24.53
2023-04-15T07:45:32.186Z,23.48
2023-04-15T07:47:34.076Z,22.83
2023-04-15T07:49:35.969Z,18.42
2023-04-15T07:51:38.492Z,16.30
2023-04-15T07:53:40.335Z,19.33
2023-04-15T07:55:42.271Z,16.27
2023-04-15T07:57:44.067Z,14.55
2023-04-15T07:59:45.997Z,14.07
2023-04-15T08:01:48.269Z,15.35
2023-04-15T08:03:50.369Z,14.40
2023-04-15T08:05:52.546Z,16.98
2023-04-15T08:07:54.351Z,15.18
2023-04-15T08:09:56.721Z,15.83
2023-04-15T08:11:58.563Z,15.65
2023-04-15T08:14:00.445Z,24.57
2023-04-15T08:16:21.750Z,18.08
2023-04-15T08:18:23.915Z,18.30
2023-04-15T08:20:25.781Z,17.40
2023-04-15T08:22:27.711Z,17.88
2023-04-15T08:24:30.399Z,22.30
2023-04-15T08:28:34.344Z,29.90
2023-04-15T08:30:36.276Z,29.92
2023-04-15T08:32:38.206Z,28.40
2023-04-15T08:34:40.186Z,24.92
2023-04-15T08:36:42.971Z,25.27
2023-04-15T08:40:46.726Z,19.48
2023-04-15T08:42:49.551Z,18.20
2023-04-15T08:44:51.802Z,18.33
2023-04-15T08:46:53.807Z,17.55
2023-04-15T08:48:57.353Z,18.58
2023-04-15T08:50:59.198Z,16.98
2023-04-15T08:53:01.136Z,17.70
2023-04-15T08:55:03.581Z,19.15
2023-04-15T08:57:05.391Z,20.98
2023-04-15T08:59:07.324Z,16.87
2023-04-15T09:01:09.193Z,17.48
2023-04-15T09:03:11.296Z,21.05
2023-04-15T09:05:13.259Z,17.23
2023-04-15T09:07:15.420Z,17.23
2023-04-15T09:09:17.321Z,18.42
2023-04-15T09:11:20.294Z,19.57
2023-04-15T09:13:22.248Z,15.38
2023-04-15T09:15:30.000Z,16.83
2023-04-15T09:17:33.416Z,19.38
2023-04-15T09:19:35.225Z,16.55
2023-04-15T09:21:37.024Z,20.70
2023-04-15T09:23:40.637Z,15.48
2023-04-15T09:25:42.716Z,18.95
2023-04-15T09:28:03.127Z,16.90
2023-04-15T09:30:08.899Z,25.13
2023-04-15T09:32:14.585Z,19.08
2023-04-15T09:34:16.673Z,16.20
2023-04-15T09:36:18.500Z,20.50
2023-04-15T09:38:20.586Z,18.50
2023-04-15T09:40:41.967Z,18.15
2023-04-15T09:42:56.820Z,23.77
2023-04-15T09:45:09.281Z,16.30
2023-04-15T09:47:18.212Z,18.92
2023-04-15T09:49:21.099Z,17.77
2023-04-15T09:51:35.072Z,18.05
2023-04-15T09:53:38.287Z,15.23
2023-04-15T09:55:40.128Z,15.65
2023-04-15T09:57:42.494Z,15.90
2023-04-15T09:59:44.294Z,16.17
2023-04-15T10:01:46.246Z,13.40
2023-04-15T10:03:48.166Z,15.43
2023-04-15T10:05:51.380Z,15.80
2023-04-15T10:07:53.269Z,19.45
2023-04-15T10:09:55.475Z,17.75
2023-04-15T10:11:57.267Z,16.92
2023-04-15T10:13:59.153Z,17.70
2023-04-15T10:16:04.154Z,16.73
2023-04-15T10:18:06.350Z,15.55
2023-04-15T10:20:09.424Z,23.77
2023-04-15T10:22:11.314Z,15.82
2023-04-15T10:24:13.368Z,20.45
2023-04-15T10:26:15.576Z,20.83
2023-04-15T10:28:17.725Z,16.52
2023-04-15T10:30:19.690Z,16.20
2023-04-15T10:32:21.956Z,15.57
2023-04-15T10:34:24.386Z,17.05
2023-04-15T10:36:26.332Z,14.05
2023-04-15T10:38:37.456Z,16.45
2023-04-15T10:40:39.733Z,17.30
2023-04-15T10:42:41.601Z,11.68
2023-04-15T10:44:45.616Z,20.27
2023-04-15T10:46:47.525Z,13.88
2023-04-15T10:48:53.186Z,14.40
2023-04-15T10:50:58.016Z,17.42
2023-04-15T10:53:00.462Z,19.17
2023-04-15T10:55:04.545Z,12.27
2023-04-15T10:57:06.658Z,15.85
2023-04-15T10:59:08.501Z,15.48
2023-04-15T11:01:10.764Z,15.05
2023-04-15T11:03:13.228Z,14.27
2023-04-15T11:05:16.360Z,15.55
2023-04-15T11:07:40.192Z,12.75
2023-04-15T11:09:42.066Z,15.10
2023-04-15T11:12:07.717Z,17.85
2023-04-15T11:14:09.589Z,15.82
2023-04-15T11:16:11.405Z,15.10
2023-04-15T11:18:14.049Z,14.77
2023-04-15T11:20:16.107Z,14.90
2023-04-15T11:22:17.933Z,13.65
2023-04-15T11:24:28.930Z,14.60
2023-04-15T11:26:31.071Z,13.52
2023-04-15T11:28:33.236Z,14.30
2023-04-15T11:30:37.004Z,15.90
2023-04-15T11:32:42.494Z,13.65
2023-04-15T11:34:46.714Z,16.23
2023-04-15T11:36:48.524Z,12.50
2023-04-15T11:38:50.584Z,12.60
2023-04-15T11:40:52.724Z,11.95
2023-04-15T11:43:14.200Z,10.60
2023-04-15T11:45:16.342Z,12.00
2023-04-15T11:47:24.847Z,15.20
2023-04-15T11:49:31.289Z,12.18
2023-04-15T11:51:34.491Z,17.17
2023-04-15T11:53:42.186Z,13.90
2023-04-15T11:55:48.467Z,15.13
2023-04-15T11:58:09.794Z,14.50
2023-04-15T12:00:12.115Z,15.10
2023-04-15T12:02:14.476Z,13.32
2023-04-15T12:04:20.876Z,15.32
2023-04-15T12:06:25.482Z,13.10
2023-04-15T12:08:50.715Z,16.67
2023-04-15T12:10:52.549Z,12.23
2023-04-15T12:12:54.410Z,13.85
2023-04-15T12:14:57.234Z,13.33
2023-04-15T12:17:00.546Z,12.07
2023-04-15T12:19:07.257Z,13.35
2023-04-15T12:21:12.250Z,15.85
2023-04-15T12:23:14.159Z,14.27
2023-04-15T12:25:16.132Z,14.85
2023-04-15T12:27:17.976Z,16.02
2023-04-15T12:29:20.013Z,13.80
2023-04-15T12:31:21.862Z,13.35
2023-04-15T12:33:23.823Z,11.83
2023-04-15T12:35:25.741Z,12.48
2023-04-15T12:37:27.565Z,15.45
2023-04-15T12:39:31.396Z,13.90
2023-04-15T12:41:33.317Z,14.50
2023-04-15T12:43:35.214Z,12.88
2023-04-15T12:45:37.337Z,14.82
2023-04-15T12:47:39.180Z,14.63
2023-04-15T12:49:41.350Z,16.65
2023-04-15T12:51:43.315Z,13.18
2023-04-15T12:53:45.197Z,15.87
2023-04-15T12:55:47.234Z,17.10
2023-04-15T12:57:49.349Z,15.48
2023-04-15T12:59:51.165Z,14.65
2023-04-15T13:01:54.469Z,16.53
2023-04-15T13:03:56.696Z,16.40
2023-04-15T13:05:58.647Z,14.07
2023-04-15T13:08:00.990Z,15.50
2023-04-15T13:10:02.806Z,14.77
2023-04-15T13:12:05.507Z,14.87
2023-04-15T13:16:10.227Z,15.00
2023-04-15T13:18:12.189Z,14.10
2023-04-15T13:20:14.316Z,15.68
2023-04-15T13:22:16.530Z,14.00
2023-04-15T13:24:18.346Z,14.07
2023-04-15T13:26:20.250Z,15.00
2023-04-15T13:28:22.497Z,14.05
2023-04-15T13:30:24.343Z,11.02
2023-04-15T13:32:26.428Z,10.73
2023-04-15T13:34:28.368Z,13.02
2023-04-15T13:36:30.183Z,11.52
2023-04-15T13:38:32.010Z,12.60
2023-04-15T13:40:33.833Z,11.77
2023-04-15T13:42:35.729Z,10.95
2023-04-15T13:44:37.644Z,13.87
2023-04-15T13:46:40.622Z,13.75
2023-04-15T13:48:42.497Z,14.73
2023-04-15T13:50:45.624Z,13.77
2023-04-15T13:52:47.646Z,15.80
2023-04-15T13:55:18.263Z,14.52
2023-04-15T13:57:11.838Z,11.77
2023-04-15T13:59:13.653Z,14.45
2023-04-15T14:01:15.525Z,10.97
2023-04-15T14:03:17.531Z,15.50
2023-04-15T14:05:19.554Z,15.02
2023-04-15T14:07:21.475Z,16.63
2023-04-15T14:09:26.284Z,16.48
2023-04-15T14:11:28.523Z,15.88
2023-04-15T14:13:30.417Z,11.88
2023-04-15T14:15:32.331Z,11.07
2023-04-15T14:17:34.261Z,11.68
2023-04-15T14:19:36.128Z,9.35
2023-04-15T14:21:37.966Z,9.97
2023-04-15T14:23:39.776Z,9.87
2023-04-15T14:25:41.745Z,10.20
2023-04-15T14:27:43.576Z,12.77
2023-04-15T14:29:45.423Z,12.57
2023-04-15T14:32:11.684Z,15.17
2023-04-15T14:34:11.408Z,11.65
2023-04-15T14:36:13.217Z,14.30
2023-04-15T14:38:15.025Z,12.83
2023-04-15T14:40:16.842Z,12.65
2023-04-15T14:42:18.671Z,13.27
2023-04-15T14:44:20.527Z,8.93
2023-04-15T14:46:22.736Z,10.37
2023-04-15T14:48:24.624Z,9.35
2023-04-15T14:50:26.440Z,10.27
2023-04-15T14:52:28.323Z,10.10
2023-04-15T14:54:30.147Z,11.93
2023-04-15T14:56:32.066Z,10.30
2023-04-15T14:58:33.854Z,10.40
2023-04-15T15:00:36.284Z,10.97
2023-04-15T15:02:40.505Z,11.55
2023-04-15T15:04:42.639Z,10.95
2023-04-15T15:06:44.900Z,11.45
2023-04-15T15:08:47.302Z,10.30
2023-04-15T15:10:50.028Z,11.17
2023-04-15T15:12:52.031Z,11.13
2023-04-15T15:14:55.448Z,11.43
2023-04-15T15:16:57.288Z,10.82
2023-04-15T15:18:59.137Z,12.30
2023-04-15T15:21:01.050Z,13.70
2023-04-15T15:23:02.867Z,10.45
2023-04-15T15:25:05.306Z,9.60
2023-04-15T15:27:07.165Z,13.15
2023-04-15T15:29:08.999Z,11.30
2023-04-15T15:31:10.985Z,9.97
2023-04-15T15:33:12.884Z,8.57
2023-04-15T15:35:14.733Z,9.85
2023-04-15T15:37:16.551Z,10.00
2023-04-15T15:39:18.457Z,10.73
2023-04-15T15:41:20.346Z,11.35
2023-04-15T15:43:22.243Z,11.18
2023-04-15T15:45:24.042Z,10.15
2023-04-15T15:47:28.710Z,7.83
2023-04-15T15:49:30.552Z,8.18
2023-04-15T15:51:32.982Z,8.50
2023-04-15T15:53:34.979Z,12.98
2023-04-15T15:55:36.783Z,8.82
2023-04-15T15:57:38.631Z,9.37
2023-04-15T15:59:41.227Z,9.27
2023-04-15T16:01:44.061Z,9.32
2023-04-15T16:03:46.076Z,8.55
2023-04-15T16:05:48.047Z,10.85
2023-04-15T16:07:49.896Z,8.15
2023-04-15T16:09:52.456Z,8.87
2023-04-15T16:11:54.309Z,9.50
2023-04-15T16:13:56.267Z,9.80
2023-04-15T16:15:58.198Z,9.23
2023-04-15T16:18:00.396Z,9.43
2023-04-15T16:20:05.571Z,9.15
2023-04-15T16:22:07.764Z,8.82
2023-04-15T16:24:09.591Z,9.52
2023-04-15T16:26:11.485Z,9.43
2023-04-15T16:28:25.709Z,10.93
2023-04-15T16:30:29.070Z,8.43
2023-04-15T16:32:31.037Z,8.23
2023-04-15T16:34:32.852Z,9.60
2023-04-15T16:36:34.968Z,7.77
2023-04-15T16:38:36.819Z,7.97
2023-04-15T16:40:38.650Z,9.30
2023-04-15T16:42:43.448Z,8.23
2023-04-15T16:44:45.610Z,9.40
2023-04-15T16:46:47.463Z,7.15
2023-04-15T16:48:49.325Z,8.17
2023-04-15T16:50:51.254Z,13.07
2023-04-15T16:52:53.091Z,8.82
2023-04-15T16:54:54.907Z,7.97
2023-04-15T16:56:58.629Z,8.43
2023-04-15T16:59:00.598Z,8.20
2023-04-15T17:01:02.627Z,6.57
2023-04-15T17:03:05.687Z,8.55
2023-04-15T17:05:08.535Z,10.73
2023-04-15T17:07:10.715Z,11.75
2023-04-15T17:09:12.593Z,6.90
2023-04-15T17:11:15.550Z,7.05
2023-04-15T17:13:17.392Z,8.23
2023-04-15T17:15:19.811Z,7.85
2023-04-15T17:17:22.605Z,12.50
2023-04-15T17:19:24.596Z,8.00
2023-04-15T17:21:26.805Z,7.50
2023-04-15T17:23:28.627Z,7.35
2023-04-15T17:25:30.902Z,10.53
2023-04-15T17:27:32.711Z,10.23
2023-04-15T17:29:34.489Z,14.53
2023-04-15T17:31:36.482Z,10.03
2023-04-15T17:33:59.939Z,9.10
2023-04-15T17:36:00.637Z,10.40
2023-04-15T17:38:02.584Z,10.32
2023-04-15T17:40:07.311Z,12.25
2023-04-15T17:42:13.697Z,13.05
2023-04-15T17:44:15.609Z,11.20
2023-04-15T17:46:19.388Z,8.32
2023-04-15T17:48:21.365Z,9.90
2023-04-15T17:50:23.255Z,11.20
2023-04-15T17:52:30.286Z,7.97
2023-04-15T17:54:32.154Z,11.20
2023-04-15T17:56:34.698Z,9.27
2023-04-15T17:58:36.497Z,12.85
2023-04-15T18:00:38.353Z,10.90
2023-04-15T18:02:40.760Z,10.23
2023-04-15T18:04:42.991Z,9.35
2023-04-15T18:06:44.944Z,9.70
2023-04-15T18:08:47.042Z,10.38
2023-04-15T18:10:48.850Z,8.40
2023-04-15T18:12:50.737Z,11.67
2023-04-15T18:14:52.887Z,8.83
2023-04-15T18:16:54.838Z,8.80
2023-04-15T18:18:56.663Z,9.18
2023-04-15T18:20:58.528Z,10.47
2023-04-15T18:23:00.430Z,10.67
2023-04-15T18:25:05.540Z,9.80
2023-04-15T18:27:07.401Z,9.88
2023-04-15T18:29:10.156Z,9.20
2023-04-15T18:33:13.702Z,8.68
2023-04-15T18:35:17.186Z,7.97
2023-04-15T18:37:19.030Z,8.65
2023-04-15T18:39:20.860Z,8.17
2023-04-15T18:41:22.738Z,8.37
2023-04-15T18:43:24.548Z,8.40
2023-04-15T18:45:26.482Z,7.93
2023-04-15T18:47:28.511Z,12.27
2023-04-15T18:49:33.271Z,10.18
2023-04-15T18:51:35.125Z,8.30
2023-04-15T18:53:37.140Z,7.30
2023-04-15T18:55:39.716Z,7.75
2023-04-15T18:57:44.897Z,7.55
2023-04-15T18:59:47.024Z,11.75
2023-04-15T19:01:48.985Z,9.93
2023-04-15T19:03:51.113Z,9.13
2023-04-15T19:05:53.019Z,9.82
2023-04-15T19:07:56.918Z,7.30
2023-04-15T19:09:59.945Z,8.13
2023-04-15T19:12:02.505Z,6.30
2023-04-15T19:14:04.404Z,8.43
2023-04-15T19:16:06.354Z,10.07
2023-04-15T19:18:10.654Z,8.27
2023-04-15T19:20:15.694Z,6.32
2023-04-15T19:22:17.762Z,6.70
2023-04-15T19:24:19.831Z,7.45
2023-04-15T19:26:21.737Z,7.25
2023-04-15T19:28:23.533Z,7.03
2023-04-15T19:30:30.132Z,9.20
2023-04-15T19:32:34.320Z,6.68
2023-04-15T19:34:36.276Z,5.40
2023-04-15T19:36:38.149Z,6.32
2023-04-15T19:38:40.064Z,7.80
2023-04-15T19:40:41.913Z,10.02
2023-04-15T19:42:43.865Z,11.33
2023-04-15T19:44:46.024Z,7.90
2023-04-15T19:46:50.070Z,6.43
2023-04-15T19:48:53.169Z,7.05
2023-04-15T19:50:55.167Z,8.45
2023-04-15T19:52:57.041Z,7.53
2023-04-15T19:54:58.963Z,9.20
2023-04-15T19:57:02.204Z,8.60
2023-04-15T19:59:04.290Z,10.88
2023-04-15T20:01:06.427Z,8.50
2023-04-15T20:03:08.426Z,7.60
2023-04-15T20:05:10.550Z,11.13
2023-04-15T20:07:12.425Z,7.95
2023-04-15T20:09:14.265Z,7.13
2023-04-15T20:11:16.281Z,8.13
2023-04-15T20:13:18.151Z,7.07
2023-04-15T20:15:20.960Z,7.43
2023-04-15T20:17:22.778Z,7.75
2023-04-15T20:19:24.809Z,6.93
2023-04-15T20:21:27.167Z,6.97
2023-04-15T20:23:29.088Z,7.10
2023-04-15T20:25:31.070Z,8.15
2023-04-15T20:27:32.946Z,6.32
2023-04-15T20:29:34.812Z,10.77
2023-04-15T20:31:36.992Z,7.93
2023-04-15T20:33:38.903Z,9.32
2023-04-15T20:35:41.169Z,8.15
2023-04-15T20:37:44.012Z,8.27
2023-04-15T20:39:45.982Z,8.38
2023-04-15T20:41:49.640Z,6.05
2023-04-15T20:43:51.515Z,6.63
2023-04-15T20:45:54.214Z,5.55
2023-04-15T20:49:58.304Z,7.85
2023-04-15T20:52:00.209Z,5.65
2023-04-15T20:54:02.024Z,6.65
2023-04-15T20:56:04.084Z,7.87
2023-04-15T20:58:06.167Z,6.53
2023-04-15T21:00:10.923Z,4.85
2023-04-15T21:02:12.917Z,4.60
2023-04-15T21:04:14.874Z,8.60
2023-04-15T21:06:17.096Z,7.03
2023-04-15T21:08:19.069Z,5.97
2023-04-15T21:10:21.197Z,6.03
2023-04-15T21:12:23.049Z,9.55
2023-04-15T21:14:24.858Z,13.40
2023-04-15T21:16:26.802Z,8.07
2023-04-15T21:18:28.655Z,8.18
2023-04-15T21:20:30.454Z,5.30
2023-04-15T21:22:32.250Z,6.38
2023-04-15T21:24:34.114Z,5.03
2023-04-15T21:26:36.381Z,6.78
2023-04-15T21:28:39.377Z,6.60
2023-04-15T21:30:41.207Z,9.25
2023-04-15T21:32:43.103Z,7.90
2023-04-15T21:34:44.997Z,5.00
2023-04-15T21:36:46.894Z,6.80
2023-04-15T21:38:48.794Z,7.50
2023-04-15T21:40:50.898Z,6.40
2023-04-15T21:42:53.013Z,6.88
2023-04-15T21:44:54.911Z,6.15
2023-04-15T21:46:57.024Z,7.93
2023-04-15T21:48:58.940Z,6.45
2023-04-15T21:51:01.695Z,7.72
2023-04-15T21:53:04.416Z,5.97
2023-04-15T21:57:08.900Z,5.65
2023-04-15T21:59:10.714Z,6.20
2023-04-15T22:01:12.556Z,7.77
2023-04-15T22:03:15.210Z,6.67
2023-04-15T22:07:18.950Z,6.85
2023-04-15T22:09:20.916Z,6.05
2023-04-15T22:11:26.724Z,5.85
2023-04-15T22:13:28.869Z,6.18
2023-04-15T22:15:30.694Z,8.83
2023-04-15T22:17:32.565Z,8.67
2023-04-15T22:19:34.379Z,7.38
2023-04-15T22:21:36.393Z,6.13
2023-04-15T22:23:38.201Z,5.68
2023-04-15T22:25:40.061Z,6.07
2023-04-15T22:27:41.954Z,6.15
2023-04-15T22:29:43.744Z,7.97
2023-04-15T22:31:45.894Z,6.73
2023-04-15T22:33:47.794Z,9.00
2023-04-15T22:35:49.601Z,5.73
2023-04-15T22:37:52.374Z,8.20
2023-04-15T22:41:57.029Z,7.55
2023-04-15T22:43:58.890Z,7.30
2023-04-15T22:46:01.180Z,6.00
2023-04-15T22:48:03.427Z,7.82
2023-04-15T22:50:06.351Z,5.65
2023-04-15T22:52:10.430Z,7.38
2023-04-15T22:54:14.264Z,6.00
2023-04-15T22:56:19.997Z,5.82
2023-04-15T22:58:21.901Z,5.82
2023-04-15T23:00:23.702Z,6.63
2023-04-15T23:02:25.661Z,6.00
2023-04-15T23:04:28.005Z,6.80
2023-04-15T23:06:30.162Z,6.30
2023-04-15T23:08:31.979Z,5.80
2023-04-15T23:10:33.780Z,6.33
2023-04-15T23:12:35.592Z,6.00
2023-04-15T23:14:37.383Z,7.17
2023-04-15T23:16:39.297Z,5.13
2023-04-15T23:18:41.148Z,6.78
2023-04-15T23:20:42.991Z,7.87
2023-04-15T23:22:45.086Z,6.87
2023-04-15T23:24:46.892Z,7.55
2023-04-15T23:26:48.864Z,6.97
2023-04-15T23:28:50.782Z,9.10
2023-04-15T23:30:52.603Z,8.48
2023-04-15T23:32:54.534Z,5.93
2023-04-15T23:34:56.385Z,5.60
2023-04-15T23:36:58.178Z,6.85
2023-04-15T23:39:00.056Z,7.20
2023-04-15T23:41:01.854Z,8.43
2023-04-15T23:43:03.725Z,7.60
2023-04-15T23:45:06.046Z,9.60
2023-04-15T23:47:07.937Z,9.43
2023-04-15T23:49:10.018Z,8.35
2023-04-15T23:51:12.026Z,7.75
2023-04-15T23:53:13.823Z,8.63
2023-04-15T23:55:15.642Z,6.47
2023-04-15T23:57:18.780Z,6.37
2023-04-15T23:59:20.598Z,6.88
